Scroll down
FLIGHT INFORMATION
Southwest Airlines

SWA480

At Arrival Gate

KCOS
 KPHX
DATE: 2021-05-08
GATE: 1
GATE DEPARTURE: 13:40
TAKEOFF: 13:58
DATE: 2021-05-08
GATE:  -
LANDING: 15:29
GATE ARRIVAL: 15:38
FLIGHT DATA
Crew: 
Speed: 
460 kts
Altitude: 
38,113 ft
Stage Length: 
479.0 nm
Block Time: 
1.9 hrs
Flight Time: 
1.5 hrs
Fuel Used: 
8,621 lb
Cleared Route: KCOS BRK DRAKE PUB ALS RGINA PUMPS GUP KPHX
TRACK DATA
50,000 ft 1,000 kts
AIRCRAFT INFO AND CUMULATIVE STATS
Aircraft Type: 
B737BW
Registration: 
SELCAL: 
MSN/LN: 
33923 / 2083
Operator: 
Total Flights: 
3
Total Block Time: 
8.7 hrs
Total Flight Time: 
7.9 hrs
Total Fuel Time: 
22,367 lb
DATALINK LOG | Newest first | Current as of: 2021-06-14 12:51:13
LABEL SEQUENCE CONTENT Dn/Up
QD423915:38 8▼ Dn
QC343115:29▼ Dn
2U0724KPHX 071451Z 00000KT 10SM CLR 26/00 A2994 RMK AO2 SLP118 T02610000 51014▲ Up
2S1215KPHX▼ Dn
2U0228KPHX 080251Z 26010KT 10SM FEW200 FEW290 33/M03 A2973 RMK AO2 SLP050 T03281028 55008▲ Up
2S0711KPHX▼ Dn
QB504413:58▼ Dn
QA332813:40 16.6▼ Dn
A34124CLEARED TO KPHX VIA BRK V83 PUB ALS J102 GUP EAGUL6. SQUAWK 0007.▲ Up
Q04013[LINK ACK]▲ Up
Q04013[LINK TEST]▼ Dn


AIRCRAFT HISTORY
FLIGHT DATE FLIGHT NO. ORIGIN DESTINATION CLEARED ROUTE BLOCK TIME FLIGHT TIME FUEL USED PILOT
2021-05-08SWA480KCOS KPHX KCOS BRK DRAKE PUB ALS RGINA PUMPS GUP KPHX1.9 hrs1.5 hrs8,621 lbMike Dryden
2021-05-02SWA2554KDAL KCOS KDAL HUDAD PNH TBE KCOS1.8 hrs1.6 hrs9,182 lbMike Dryden
2020-09-10SWA36KHOU KDAL KHOU MAJKK KDAL4.9 hrs4.8 hrs4,564 lbAlex K.